Time;durP1;ratioP1;P1;durP2;ratioP2;P2;SDS_P1;SDS_P2;PMS_P1;PMS_P2;Temp;Humidity;BMP_temperature;BMP_pressure;BME280_temperature;BME280_humidity;BME280_pressure;Samples;Min_cycle;Max_cycle;Signal;HPM_P1;HPM_P2
2023/10/03 00:01:38;;;;;;;11.88;5.93;;;19.70;99.90;;;;;;5059189;28;20271;-76
2023/10/03 00:04:07;;;;;;;14.55;5.85;;;19.60;99.90;;;;;;5043330;28;20644;-74
2023/10/03 00:06:33;;;;;;;10.90;6.00;;;19.60;99.90;;;;;;5051805;28;20272;-75
2023/10/03 00:08:59;;;;;;;12.73;5.32;;;19.60;99.90;;;;;;5057783;28;20550;-76
2023/10/03 00:11:25;;;;;;;14.65;5.93;;;19.60;99.90;;;;;;5029667;28;20207;-76
2023/10/03 00:13:52;;;;;;;10.50;5.10;;;19.70;99.90;;;;;;5060762;28;20214;-73
2023/10/03 00:16:18;;;;;;;9.85;4.78;;;19.50;99.90;;;;;;5057264;28;20709;-76
2023/10/03 00:18:44;;;;;;;10.70;4.55;;;19.60;99.90;;;;;;5057972;28;20237;-74
2023/10/03 00:21:09;;;;;;;13.45;5.45;;;19.50;99.90;;;;;;5060223;28;20234;-76
2023/10/03 00:23:35;;;;;;;9.85;5.07;;;19.50;99.90;;;;;;5038435;28;20713;-76
2023/10/03 00:26:01;;;;;;;9.68;5.03;;;19.50;99.90;;;;;;5060183;28;20204;-76
2023/10/03 00:28:29;;;;;;;13.65;4.68;;;19.40;99.90;;;;;;5042850;28;20206;-75
2023/10/03 00:30:55;;;;;;;13.63;5.30;;;19.50;99.90;;;;;;5057900;28;20621;-75
2023/10/03 00:33:25;;;;;;;10.77;4.30;;;19.40;99.90;;;;;;5060389;28;20357;-76
2023/10/03 00:35:53;;;;;;;10.50;4.70;;;19.40;99.90;;;;;;5050163;28;20563;-76
2023/10/03 00:38:19;;;;;;;9.43;4.20;;;19.40;99.90;;;;;;5056840;28;20214;-75
2023/10/03 00:40:49;;;;;;;8.68;4.72;;;19.40;99.90;;;;;;5057132;28;20199;-75
2023/10/03 00:43:15;;;;;;;13.27;4.82;;;19.40;99.90;;;;;;5041411;28;20222;-76
2023/10/03 00:45:42;;;;;;;8.88;4.85;;;19.40;99.90;;;;;;5039978;28;20215;-76
2023/10/03 00:48:08;;;;;;;9.15;4.82;;;19.40;99.90;;;;;;5042071;28;20313;-76
2023/10/03 00:50:35;;;;;;;10.85;5.18;;;19.30;99.90;;;;;;5058176;28;20204;-75
2023/10/03 00:53:09;;;;;;;8.82;4.65;;;19.20;99.90;;;;;;5042779;28;20211;-76
2023/10/03 00:55:39;;;;;;;11.15;5.18;;;19.10;99.90;;;;;;5042802;28;20210;-75
2023/10/03 01:00:43;;;;;;;9.15;4.85;;;19.10;99.90;;;;;;5060371;28;20266;-75
2023/10/03 01:03:32;;;;;;;10.52;5.07;;;19.00;99.90;;;;;;5052116;28;20223;-75
2023/10/03 01:06:04;;;;;;;9.75;4.45;;;19.00;99.90;;;;;;5061131;28;20662;-75
2023/10/03 01:08:37;;;;;;;6.40;3.63;;;18.90;99.90;;;;;;5058369;28;20210;-76
2023/10/03 01:11:07;;;;;;;12.02;4.43;;;18.90;99.90;;;;;;5039724;28;20216;-76
2023/10/03 01:13:38;;;;;;;8.93;4.88;;;18.90;99.90;;;;;;5057762;28;20605;-74
2023/10/03 01:16:05;;;;;;;14.88;4.72;;;18.90;99.90;;;;;;5059539;28;20226;-75
2023/10/03 01:18:32;;;;;;;8.60;4.22;;;18.90;99.90;;;;;;5059078;28;20580;-75
2023/10/03 01:21:05;;;;;;;8.68;4.15;;;18.80;99.90;;;;;;5061302;28;20176;-75
2023/10/03 01:23:34;;;;;;;11.55;4.10;;;18.90;99.90;;;;;;5043374;28;20223;-75
2023/10/03 01:26:00;;;;;;;11.77;4.38;;;18.80;99.90;;;;;;5061608;28;20851;-75
2023/10/03 01:28:26;;;;;;;10.10;4.40;;;18.80;99.90;;;;;;5057560;28;20257;-76
2023/10/03 01:30:52;;;;;;;9.45;4.82;;;18.80;99.90;;;;;;5052165;28;20207;-75
2023/10/03 01:33:17;;;;;;;10.88;4.57;;;18.80;99.90;;;;;;5053164;28;20222;-75
2023/10/03 01:35:43;;;;;;;8.98;4.07;;;18.80;99.90;;;;;;5058139;28;20297;-75
2023/10/03 01:38:09;;;;;;;10.88;4.60;;;18.70;99.90;;;;;;5061064;28;20247;-76
2023/10/03 01:40:35;;;;;;;10.90;4.45;;;18.60;99.90;;;;;;5045660;28;20244;-73
2023/10/03 01:43:01;;;;;;;11.50;5.05;;;18.70;99.90;;;;;;5061967;28;20683;-76
2023/10/03 01:45:28;;;;;;;10.57;4.97;;;18.70;99.90;;;;;;5065410;28;20254;-76
2023/10/03 01:47:58;;;;;;;8.90;4.13;;;18.60;99.90;;;;;;5088730;22;20356;-72
2023/10/03 01:50:28;;;;;;;10.10;4.47;;;18.60;99.90;;;;;;5045478;28;20207;-72
2023/10/03 01:52:54;;;;;;;9.13;4.95;;;18.50;99.90;;;;;;5069428;28;20249;-72
2023/10/03 01:55:20;;;;;;;7.80;4.28;;;18.50;99.90;;;;;;5050628;28;20225;-73
2023/10/03 01:57:47;;;;;;;10.95;4.53;;;18.50;99.90;;;;;;5052175;28;20221;-73
2023/10/03 02:00:27;;;;;;;8.55;3.97;;;18.50;99.90;;;;;;5054587;28;20689;-73
2023/10/03 02:02:53;;;;;;;8.77;4.15;;;18.40;99.90;;;;;;5071465;28;20211;-71
2023/10/03 02:05:22;;;;;;;9.32;4.43;;;18.30;99.90;;;;;;5053909;28;20286;-73
2023/10/03 02:07:48;;;;;;;8.25;4.22;;;18.30;99.90;;;;;;5068052;28;20286;-72
2023/10/03 02:10:14;;;;;;;12.32;4.75;;;18.30;99.90;;;;;;5059026;28;20250;-74
2023/10/03 02:12:49;;;;;;;8.75;4.55;;;18.20;99.90;;;;;;5046441;28;20219;-73
2023/10/03 02:15:27;;;;;;;10.57;4.47;;;18.20;99.90;;;;;;5042252;28;20246;-72
2023/10/03 02:17:54;;;;;;;8.20;4.47;;;18.10;99.90;;;;;;5062618;28;20206;-73
2023/10/03 02:20:21;;;;;;;7.47;4.60;;;18.00;99.90;;;;;;5065013;28;20677;-72
2023/10/03 02:22:56;;;;;;;9.25;4.70;;;18.00;99.90;;;;;;5070202;28;20249;-73
2023/10/03 02:25:27;;;;;;;12.07;4.90;;;17.90;99.90;;;;;;5063568;28;20202;-73
2023/10/03 02:27:54;;;;;;;11.20;5.35;;;17.90;99.90;;;;;;5065713;28;20618;-73
2023/10/03 02:30:25;;;;;;;10.70;4.38;;;17.90;99.90;;;;;;5069131;28;20168;-73
2023/10/03 02:32:55;;;;;;;12.10;4.93;;;17.90;99.90;;;;;;5068154;28;20661;-73
2023/10/03 02:35:25;;;;;;;9.50;4.72;;;17.90;99.90;;;;;;5050080;28;20253;-73
2023/10/03 02:37:52;;;;;;;11.45;4.60;;;17.80;99.90;;;;;;5069636;28;20203;-73
2023/10/03 02:40:22;;;;;;;11.70;5.03;;;17.80;99.90;;;;;;5052899;28;20203;-74
2023/10/03 02:42:51;;;;;;;10.88;4.40;;;17.80;99.90;;;;;;5049145;28;20211;-73
2023/10/03 02:45:19;;;;;;;10.90;5.22;;;17.60;99.90;;;;;;5064366;28;20229;-73
2023/10/03 02:47:45;;;;;;;9.15;4.80;;;17.60;99.90;;;;;;5062005;28;20223;-74
2023/10/03 02:50:14;;;;;;;9.73;5.18;;;17.60;99.90;;;;;;5063191;28;20227;-74
2023/10/03 02:52:40;;;;;;;11.27;4.38;;;17.60;99.90;;;;;;5047463;28;20615;-73
2023/10/03 02:55:12;;;;;;;11.95;5.47;;;17.70;99.90;;;;;;5045622;28;20253;-73
2023/10/03 02:57:38;;;;;;;9.82;5.38;;;17.70;99.90;;;;;;5067097;28;20202;-74
2023/10/03 03:00:14;;;;;;;8.95;4.75;;;17.60;99.90;;;;;;5062148;28;20254;-74
2023/10/03 03:02:47;;;;;;;14.68;5.22;;;17.60;99.90;;;;;;5068276;28;20229;-73
2023/10/03 03:05:16;;;;;;;11.35;4.95;;;17.50;99.90;;;;;;5068151;28;20218;-74
2023/10/03 03:07:44;;;;;;;11.68;5.90;;;17.50;99.90;;;;;;5065987;28;20207;-73
2023/10/03 03:10:14;;;;;;;10.50;5.30;;;17.50;99.90;;;;;;5048335;28;20206;-74
2023/10/03 03:12:44;;;;;;;9.98;5.03;;;17.40;99.90;;;;;;5047678;28;20305;-73
2023/10/03 03:15:21;;;;;;;20.05;6.30;;;17.40;99.90;;;;;;5070103;28;20701;-74
2023/10/03 03:17:48;;;;;;;13.82;5.97;;;17.40;99.90;;;;;;5066331;28;20206;-74
2023/10/03 03:20:25;;;;;;;14.23;5.75;;;17.40;99.90;;;;;;5052470;28;20230;-73
2023/10/03 03:22:51;;;;;;;11.63;5.03;;;17.40;99.90;;;;;;5060836;28;20202;-74
2023/10/03 03:25:37;;;;;;;12.18;4.72;;;17.40;99.90;;;;;;5060584;28;20211;-73
2023/10/03 03:28:12;;;;;;;11.82;5.18;;;17.40;99.90;;;;;;5056468;28;20265;-74
2023/10/03 03:30:55;;;;;;;12.55;5.22;;;17.40;99.90;;;;;;5039092;28;20542;-74
2023/10/03 03:33:22;;;;;;;18.20;5.43;;;17.50;99.90;;;;;;5046818;28;20522;-73
2023/10/03 03:35:48;;;;;;;11.38;5.57;;;17.40;99.90;;;;;;5062601;28;20182;-73
2023/10/03 03:38:18;;;;;;;13.18;5.15;;;17.30;99.90;;;;;;5052788;28;20238;-73
2023/10/03 03:40:53;;;;;;;15.80;5.30;;;17.30;99.90;;;;;;5064788;28;20279;-74
2023/10/03 03:43:21;;;;;;;15.18;5.72;;;17.30;99.90;;;;;;5048559;28;20222;-73
2023/10/03 03:45:47;;;;;;;10.57;5.13;;;17.40;99.90;;;;;;5049554;28;20253;-71
2023/10/03 03:48:13;;;;;;;12.63;5.70;;;17.40;99.90;;;;;;5067802;28;20208;-74
2023/10/03 03:50:39;;;;;;;16.10;6.10;;;17.40;99.90;;;;;;5069927;28;20298;-74
2023/10/03 03:53:06;;;;;;;15.32;5.80;;;17.40;99.90;;;;;;5069340;28;20203;-74
2023/10/03 03:55:36;;;;;;;13.18;6.88;;;17.30;99.90;;;;;;5072358;28;20418;-74
2023/10/03 03:58:05;;;;;;;14.27;6.47;;;17.30;99.90;;;;;;5064709;28;20250;-73
2023/10/03 04:00:32;;;;;;;10.57;5.07;;;17.30;99.90;;;;;;5051827;28;20665;-73
2023/10/03 04:03:08;;;;;;;18.90;6.80;;;17.30;99.90;;;;;;5040186;28;20187;-73
2023/10/03 04:05:34;;;;;;;12.80;6.05;;;17.40;99.90;;;;;;5066871;28;20229;-74
2023/10/03 04:08:00;;;;;;;11.50;5.38;;;17.30;99.90;;;;;;5061180;28;20234;-73
2023/10/03 04:10:26;;;;;;;16.40;5.97;;;17.30;99.90;;;;;;5046735;28;20258;-74
2023/10/03 04:12:55;;;;;;;14.88;6.45;;;17.30;99.90;;;;;;5051132;28;20632;-73
2023/10/03 04:15:21;;;;;;;13.65;5.88;;;17.40;99.90;;;;;;5064590;28;20643;-75
2023/10/03 04:17:48;;;;;;;15.80;6.55;;;17.30;99.90;;;;;;5049490;28;20229;-74
2023/10/03 04:22:50;;;;;;;16.77;6.47;;;17.30;99.90;;;;;;5067824;28;20627;-74
2023/10/03 04:25:19;;;;;;;16.17;7.63;;;17.30;99.90;;;;;;5069088;28;20227;-74
2023/10/03 04:27:50;;;;;;;11.00;5.15;;;17.30;99.90;;;;;;5069029;28;20210;-73
2023/10/03 04:30:16;;;;;;;18.58;6.47;;;17.30;99.90;;;;;;5051045;28;20193;-75
2023/10/03 04:32:42;;;;;;;21.50;7.28;;;17.30;99.90;;;;;;5070468;28;20217;-74
2023/10/03 04:35:12;;;;;;;17.98;7.05;;;17.20;99.90;;;;;;5044215;28;20281;-73
2023/10/03 04:37:42;;;;;;;15.15;6.38;;;17.30;99.90;;;;;;5066466;28;20226;-74
2023/10/03 04:40:16;;;;;;;16.50;7.28;;;17.30;99.90;;;;;;5043320;28;20234;-73
2023/10/03 04:42:45;;;;;;;18.00;6.80;;;17.30;99.90;;;;;;5065021;28;20229;-73
2023/10/03 04:45:14;;;;;;;13.77;6.35;;;17.30;99.90;;;;;;5069841;28;20171;-73
2023/10/03 04:47:45;;;;;;;13.95;6.45;;;17.40;99.90;;;;;;5065127;28;20788;-74
2023/10/03 04:50:12;;;;;;;15.60;6.07;;;17.40;99.90;;;;;;5069721;28;20214;-73
2023/10/03 04:52:38;;;;;;;17.23;6.60;;;17.40;99.90;;;;;;5070179;28;20700;-74
2023/10/03 04:55:04;;;;;;;15.90;7.10;;;17.40;99.90;;;;;;5052999;28;20260;-73
2023/10/03 04:57:30;;;;;;;14.50;7.40;;;17.30;99.90;;;;;;5048386;28;20619;-74
2023/10/03 04:59:56;;;;;;;16.20;7.10;;;17.40;99.90;;;;;;5067457;28;20172;-73
2023/10/03 05:02:22;;;;;;;15.60;6.93;;;17.40;99.90;;;;;;5063962;28;20332;-73
2023/10/03 05:04:48;;;;;;;14.88;6.68;;;17.40;99.90;;;;;;5069699;28;20820;-73
2023/10/03 05:07:15;;;;;;;16.95;7.20;;;17.40;99.90;;;;;;5068000;28;20229;-74
2023/10/03 05:09:40;;;;;;;15.13;6.10;;;17.50;99.90;;;;;;5068531;28;20244;-74
2023/10/03 05:12:06;;;;;;;16.98;7.20;;;17.50;99.90;;;;;;5068434;28;20258;-73
2023/10/03 05:14:35;;;;;;;17.58;7.38;;;17.50;99.90;;;;;;5069714;28;20217;-74
2023/10/03 05:17:01;;;;;;;16.10;6.82;;;17.50;99.90;;;;;;5051854;28;20207;-74
2023/10/03 05:19:28;;;;;;;16.80;7.22;;;17.50;99.90;;;;;;5070148;28;20639;-73
2023/10/03 05:21:53;;;;;;;15.35;7.10;;;17.60;99.90;;;;;;5066289;28;20225;-71
2023/10/03 05:24:19;;;;;;;16.08;7.38;;;17.70;99.90;;;;;;5051157;28;20199;-74
2023/10/03 05:26:45;;;;;;;17.10;6.93;;;17.70;99.90;;;;;;5068963;28;20195;-74
2023/10/03 05:29:11;;;;;;;16.45;6.90;;;17.80;99.90;;;;;;5068914;28;20653;-74
2023/10/03 05:31:40;;;;;;;16.33;6.50;;;17.80;99.90;;;;;;5066367;28;20207;-75
2023/10/03 05:34:11;;;;;;;15.00;6.20;;;17.80;99.90;;;;;;5048920;28;20206;-74
2023/10/03 05:36:37;;;;;;;15.32;6.43;;;17.90;99.90;;;;;;5066173;28;20191;-74
2023/10/03 05:39:06;;;;;;;19.52;7.68;;;17.90;99.90;;;;;;5069480;28;20225;-74
2023/10/03 05:41:31;;;;;;;16.52;6.70;;;17.90;99.90;;;;;;5062322;28;20233;-74
2023/10/03 05:43:57;;;;;;;19.05;6.90;;;18.00;99.90;;;;;;5047966;28;20212;-74
2023/10/03 05:46:23;;;;;;;18.98;6.63;;;18.00;99.90;;;;;;5067363;28;20269;-72
2023/10/03 05:48:49;;;;;;;17.55;7.47;;;18.00;99.90;;;;;;5049896;28;20211;-74
2023/10/03 05:51:15;;;;;;;19.50;7.75;;;18.00;99.90;;;;;;5069623;28;20274;-73
2023/10/03 05:53:41;;;;;;;15.05;6.57;;;18.10;99.90;;;;;;5045537;28;20759;-74
2023/10/03 05:56:10;;;;;;;17.98;7.20;;;19.00;99.90;;;;;;5071160;28;20261;-74
2023/10/03 05:58:38;;;;;;;10.63;5.47;;;19.80;99.90;;;;;;5068158;28;20301;-74
2023/10/03 06:01:04;;;;;;;15.60;7.05;;;19.60;99.90;;;;;;5051520;28;20246;-75
2023/10/03 06:03:30;;;;;;;16.15;6.95;;;19.90;99.90;;;;;;5069487;28;20222;-74
2023/10/03 06:05:55;;;;;;;16.58;6.38;;;19.40;99.90;;;;;;5065233;28;20266;-74
2023/10/03 06:08:21;;;;;;;15.20;7.00;;;19.20;99.90;;;;;;5066695;28;20210;-74
2023/10/03 06:10:49;;;;;;;14.82;6.60;;;18.80;99.90;;;;;;5067692;28;20203;-74
2023/10/03 06:13:15;;;;;;;20.63;6.85;;;18.60;99.90;;;;;;5065842;28;20713;-75
2023/10/03 06:15:41;;;;;;;16.52;6.32;;;18.50;99.90;;;;;;5050265;28;20215;-73
2023/10/03 06:18:08;;;;;;;18.73;7.55;;;18.50;99.90;;;;;;5066461;28;20199;-74
2023/10/03 06:20:34;;;;;;;14.52;6.93;;;18.40;99.90;;;;;;5059412;28;20241;-74
2023/10/03 06:23:04;;;;;;;15.10;6.50;;;18.40;99.90;;;;;;5069441;28;20696;-75
2023/10/03 06:25:30;;;;;;;16.88;7.53;;;18.50;99.90;;;;;;5067672;28;20233;-74
2023/10/03 06:27:56;;;;;;;18.33;7.20;;;18.50;99.90;;;;;;5067902;28;20285;-73
2023/10/03 06:30:22;;;;;;;17.02;7.68;;;18.50;99.90;;;;;;5072768;28;20179;-74
2023/10/03 06:32:48;;;;;;;18.20;8.52;;;18.50;99.90;;;;;;5073165;28;20669;-73
2023/10/03 06:35:14;;;;;;;15.52;7.25;;;18.60;99.90;;;;;;5070263;28;20753;-74
2023/10/03 06:37:40;;;;;;;19.27;7.30;;;18.60;99.90;;;;;;5066395;28;20208;-74
2023/10/03 06:40:09;;;;;;;18.10;7.82;;;18.70;99.90;;;;;;5071885;28;20775;-73
2023/10/03 06:42:35;;;;;;;19.17;7.43;;;18.90;99.90;;;;;;5070726;28;20179;-73
2023/10/03 06:45:05;;;;;;;15.18;7.18;;;18.90;99.90;;;;;;5072573;28;20348;-72
2023/10/03 06:47:33;;;;;;;17.38;7.30;;;19.00;99.90;;;;;;5069608;28;20294;-75
2023/10/03 06:49:59;;;;;;;18.17;8.20;;;19.10;99.90;;;;;;5072844;28;20254;-74
2023/10/03 06:52:28;;;;;;;16.15;8.23;;;19.10;99.90;;;;;;5054532;28;20207;-72
2023/10/03 06:54:53;;;;;;;18.90;7.22;;;19.40;99.90;;;;;;5055327;28;20208;-71
2023/10/03 06:57:19;;;;;;;14.63;6.55;;;19.50;99.90;;;;;;5055025;28;20198;-73
2023/10/03 06:59:44;;;;;;;16.08;7.00;;;19.40;99.90;;;;;;5071113;28;20239;-73
2023/10/03 07:02:10;;;;;;;15.20;7.13;;;19.50;99.90;;;;;;5069635;28;20207;-73
2023/10/03 07:04:36;;;;;;;18.65;6.53;;;19.90;99.90;;;;;;5068582;28;20207;-73
2023/10/03 07:07:02;;;;;;;16.52;6.57;;;20.10;99.90;;;;;;5068839;28;20233;-73
2023/10/03 07:09:27;;;;;;;18.75;6.65;;;19.80;99.90;;;;;;5068285;28;20179;-74
2023/10/03 07:11:54;;;;;;;14.23;6.65;;;20.00;99.90;;;;;;5070776;28;20171;-71
2023/10/03 07:14:20;;;;;;;16.92;7.40;;;20.00;99.90;;;;;;5053351;28;20206;-74
2023/10/03 07:16:48;;;;;;;16.83;6.95;;;20.20;99.90;;;;;;5053064;28;20433;-73
2023/10/03 07:19:14;;;;;;;15.98;7.40;;;20.30;99.90;;;;;;5071427;28;20207;-73
2023/10/03 07:21:43;;;;;;;17.80;7.88;;;20.60;99.90;;;;;;5065075;28;20211;-74
2023/10/03 07:24:09;;;;;;;16.67;7.82;;;20.90;99.90;;;;;;5071370;28;20194;-72
2023/10/03 07:26:35;;;;;;;18.60;8.25;;;21.20;99.90;;;;;;5054166;28;20248;-73
2023/10/03 07:29:02;;;;;;;15.05;6.47;;;21.70;99.90;;;;;;5068053;28;20211;-73
2023/10/03 07:31:34;;;;;;;17.85;8.13;;;21.80;99.90;;;;;;5052991;28;20835;-73
2023/10/03 07:34:01;;;;;;;17.42;7.38;;;22.00;99.90;;;;;;5066626;28;20298;-72
2023/10/03 07:36:27;;;;;;;20.13;7.18;;;21.90;99.90;;;;;;5069448;28;20286;-72
2023/10/03 07:38:52;;;;;;;18.00;8.00;;;21.90;99.90;;;;;;5070135;28;20677;-72
2023/10/03 07:41:19;;;;;;;17.25;7.55;;;22.40;99.90;;;;;;5068453;28;20618;-73
2023/10/03 07:43:48;;;;;;;16.30;7.55;;;22.90;99.90;;;;;;5068125;28;20225;-73
2023/10/03 07:46:20;;;;;;;16.10;7.82;;;23.30;99.90;;;;;;5066186;28;20215;-72
2023/10/03 07:48:52;;;;;;;18.80;8.25;;;24.00;99.90;;;;;;5089285;22;20361;-76
2023/10/03 07:51:20;;;;;;;17.30;7.43;;;24.50;99.90;;;;;;5065661;28;20183;-76
2023/10/03 07:53:47;;;;;;;19.23;8.88;;;24.40;99.90;;;;;;5074303;28;20821;-76
2023/10/03 07:56:30;;;;;;;17.40;7.47;;;24.70;99.90;;;;;;5050563;28;20226;-76
2023/10/03 07:59:02;;;;;;;20.20;7.65;;;24.80;99.90;;;;;;5061613;28;20207;-73
2023/10/03 08:01:29;;;;;;;19.02;8.23;;;24.80;99.90;;;;;;5048992;28;20627;-75
2023/10/03 08:03:56;;;;;;;19.88;8.27;;;24.60;99.90;;;;;;5053869;28;20309;-75
2023/10/03 08:06:23;;;;;;;20.17;8.68;;;24.90;99.90;;;;;;5052845;28;20549;-74
2023/10/03 08:08:52;;;;;;;18.38;9.02;;;25.60;99.90;;;;;;5052196;28;20190;-76
2023/10/03 08:11:22;;;;;;;17.40;7.55;;;26.20;99.90;;;;;;5057073;28;20214;-76
2023/10/03 08:13:49;;;;;;;18.38;8.02;;;27.20;99.90;;;;;;5041674;28;20787;-76
2023/10/03 08:16:15;;;;;;;20.95;9.02;;;27.00;99.90;;;;;;5058024;28;20221;-75
2023/10/03 08:18:46;;;;;;;19.10;8.55;;;27.90;99.90;;;;;;5058468;28;20212;-75
2023/10/03 08:21:15;;;;;;;17.40;7.85;;;28.20;99.90;;;;;;5058858;28;20521;-74
2023/10/03 08:23:41;;;;;;;16.50;8.38;;;27.30;99.90;;;;;;5032357;28;20223;-76
2023/10/03 08:26:07;;;;;;;19.80;7.85;;;27.00;99.90;;;;;;5057206;28;20214;-76
2023/10/03 08:28:34;;;;;;;20.15;9.20;;;25.80;99.90;;;;;;5050661;28;20224;-76
2023/10/03 08:31:06;;;;;;;20.30;7.97;;;25.30;99.90;;;;;;5040621;28;20261;-76
2023/10/03 08:33:36;;;;;;;16.42;8.10;;;24.90;99.90;;;;;;5054955;28;20211;-76
2023/10/03 08:36:14;;;;;;;18.45;8.95;;;24.70;99.90;;;;;;5061877;28;20600;-75
2023/10/03 08:38:43;;;;;;;22.42;8.65;;;24.50;99.90;;;;;;5046077;28;20214;-76
2023/10/03 08:41:28;;;;;;;20.05;8.43;;;24.70;99.90;;;;;;5042099;28;20628;-75
2023/10/03 08:43:55;;;;;;;17.55;8.00;;;25.00;99.90;;;;;;5058098;28;20215;-75
2023/10/03 08:46:27;;;;;;;18.38;7.78;;;24.80;99.90;;;;;;5050209;28;20682;-76
2023/10/03 08:49:00;;;;;;;20.08;8.50;;;24.60;99.90;;;;;;5054026;28;20234;-74
2023/10/03 08:51:32;;;;;;;17.50;7.07;;;24.10;99.90;;;;;;5058561;28;20168;-76
2023/10/03 08:54:10;;;;;;;19.83;8.32;;;23.90;99.90;;;;;;5057235;28;20254;-75
2023/10/03 08:56:41;;;;;;;17.42;8.18;;;23.70;99.90;;;;;;5037788;28;20207;-75
2023/10/03 08:59:10;;;;;;;18.38;7.65;;;23.70;99.90;;;;;;5054237;28;20234;-75
2023/10/03 09:01:38;;;;;;;20.42;8.52;;;23.70;99.90;;;;;;5057425;28;20218;-76
2023/10/03 09:04:15;;;;;;;18.70;7.72;;;23.60;99.90;;;;;;5055014;28;20218;-76
2023/10/03 09:06:45;;;;;;;22.42;8.15;;;23.50;99.90;;;;;;5041797;28;20222;-75
2023/10/03 09:09:13;;;;;;;17.67;9.05;;;23.40;99.90;;;;;;5051323;28;20203;-75
2023/10/03 09:11:43;;;;;;;17.90;8.15;;;23.60;99.90;;;;;;5052740;28;20207;-76
2023/10/03 09:14:14;;;;;;;16.85;7.45;;;23.50;99.90;;;;;;5058475;28;20215;-76
2023/10/03 09:16:40;;;;;;;19.48;8.00;;;23.70;99.90;;;;;;5038691;28;20204;-76
2023/10/03 09:19:13;;;;;;;20.98;8.32;;;23.90;99.90;;;;;;5058946;28;20222;-74
2023/10/03 09:21:39;;;;;;;21.52;8.05;;;24.10;99.90;;;;;;5060009;28;20524;-76
2023/10/03 09:24:15;;;;;;;25.00;8.27;;;24.30;99.90;;;;;;5041976;28;20214;-76
2023/10/03 09:26:45;;;;;;;15.90;7.88;;;24.40;99.90;;;;;;5060521;28;20252;-76
2023/10/03 09:29:31;;;;;;;19.08;8.52;;;24.40;99.90;;;;;;5058484;28;20211;-76
2023/10/03 09:32:12;;;;;;;19.70;7.65;;;24.40;99.90;;;;;;5059424;28;20310;-75
2023/10/03 09:34:40;;;;;;;16.88;7.22;;;24.50;99.90;;;;;;5054373;28;20846;-76
2023/10/03 09:37:06;;;;;;;20.33;7.88;;;24.40;99.90;;;;;;5048659;28;20298;-76
2023/10/03 09:39:48;;;;;;;18.33;8.65;;;24.50;99.90;;;;;;5049792;28;20199;-76
2023/10/03 09:42:16;;;;;;;17.90;7.97;;;24.80;99.90;;;;;;5031785;28;20668;-76
2023/10/03 09:44:45;;;;;;;16.55;8.07;;;25.00;99.90;;;;;;5056342;28;20722;-76
2023/10/03 09:47:13;;;;;;;19.77;7.85;;;25.00;99.90;;;;;;5060373;28;20211;-76
2023/10/03 09:49:39;;;;;;;17.15;7.97;;;25.20;99.90;;;;;;5058521;28;20211;-76
2023/10/03 09:52:09;;;;;;;20.67;8.60;;;25.10;99.90;;;;;;5061002;28;20207;-73
2023/10/03 09:54:39;;;;;;;20.35;7.65;;;25.10;99.90;;;;;;5056972;28;20184;-76
2023/10/03 09:57:16;;;;;;;18.25;8.02;;;25.00;99.90;;;;;;5044528;28;20972;-76
2023/10/03 09:59:46;;;;;;;23.02;8.10;;;25.10;99.90;;;;;;5063378;28;20298;-76
2023/10/03 10:02:16;;;;;;;18.05;7.47;;;25.10;99.90;;;;;;5062183;28;20568;-76
2023/10/03 10:04:45;;;;;;;18.23;7.68;;;25.20;99.90;;;;;;5045662;28;20219;-76
2023/10/03 10:07:27;;;;;;;19.17;7.40;;;25.30;99.90;;;;;;5061212;28;20219;-75
2023/10/03 10:10:13;;;;;;;16.38;7.55;;;25.50;99.90;;;;;;5058452;28;20773;-73
2023/10/03 10:13:13;;;;;;;16.80;7.22;;;25.50;99.90;;;;;;5044027;28;20647;-76
2023/10/03 10:16:01;;;;;;;19.00;7.50;;;25.70;99.90;;;;;;5049372;28;20214;-76
2023/10/03 10:18:45;;;;;;;15.70;7.35;;;25.70;99.90;;;;;;5056430;28;20766;-76
2023/10/03 10:21:32;;;;;;;19.10;7.22;;;25.70;99.90;;;;;;5035249;28;20218;-76
2023/10/03 10:24:16;;;;;;;20.17;8.13;;;25.90;99.90;;;;;;5061786;28;20239;-76
2023/10/03 10:26:48;;;;;;;18.75;7.57;;;26.00;99.90;;;;;;5058774;28;20573;-77
2023/10/03 10:29:19;;;;;;;19.38;7.03;;;26.00;99.90;;;;;;5062961;28;20207;-76
2023/10/03 10:31:49;;;;;;;17.92;7.47;;;26.00;99.90;;;;;;5058576;28;20265;-76
2023/10/03 10:34:18;;;;;;;16.65;7.30;;;26.00;99.90;;;;;;5061061;28;20584;-75
2023/10/03 10:37:04;;;;;;;17.25;7.38;;;26.10;99.90;;;;;;5055021;28;20253;-75
2023/10/03 10:39:56;;;;;;;15.23;6.57;;;26.10;99.90;;;;;;5037297;28;20200;-76
2023/10/03 10:42:26;;;;;;;17.00;6.68;;;26.00;99.90;;;;;;5054832;28;20241;-77
2023/10/03 10:45:04;;;;;;;17.40;6.93;;;25.90;99.90;;;;;;5031530;28;20235;-76
2023/10/03 10:47:44;;;;;;;15.48;7.03;;;25.80;99.90;;;;;;5057279;28;20631;-74
2023/10/03 10:50:09;;;;;;;13.02;5.78;;;25.80;99.90;;;;;;5063696;28;20561;-76
2023/10/03 10:52:57;;;;;;;15.48;6.70;;;25.70;99.90;;;;;;5043669;28;20213;-76
2023/10/03 10:55:24;;;;;;;15.40;6.53;;;25.70;99.90;;;;;;5056601;28;21021;-76
2023/10/03 10:58:02;;;;;;;12.52;5.70;;;25.70;99.90;;;;;;5059243;28;20266;-76
2023/10/03 11:00:27;;;;;;;18.52;7.03;;;25.70;99.90;;;;;;5053556;28;20938;-74
2023/10/03 11:02:53;;;;;;;12.80;6.30;;;25.70;99.90;;;;;;5054493;28;20183;-74
2023/10/03 11:05:19;;;;;;;19.15;6.57;;;25.60;99.90;;;;;;5059823;28;20219;-76
2023/10/03 11:07:49;;;;;;;15.23;6.90;;;25.50;99.90;;;;;;5056835;28;20681;-76
2023/10/03 11:10:17;;;;;;;11.77;5.35;;;25.60;99.90;;;;;;5043514;28;20203;-76
2023/10/03 11:12:43;;;;;;;14.75;6.75;;;25.50;99.90;;;;;;5048757;28;20273;-76
2023/10/03 11:15:12;;;;;;;13.68;6.30;;;25.60;99.90;;;;;;5040996;28;20187;-75
2023/10/03 11:17:38;;;;;;;14.18;6.35;;;25.60;99.90;;;;;;5037013;28;20800;-75
2023/10/03 11:20:08;;;;;;;16.77;7.43;;;25.70;99.90;;;;;;5060519;28;20291;-75
2023/10/03 11:22:37;;;;;;;14.38;6.55;;;25.70;99.90;;;;;;5060569;28;20207;-75
2023/10/03 11:25:09;;;;;;;17.33;6.00;;;25.70;99.90;;;;;;5035782;28;20286;-74
2023/10/03 11:27:35;;;;;;;12.10;5.82;;;25.70;99.90;;;;;;5060609;28;20233;-74
2023/10/03 11:30:14;;;;;;;14.82;6.35;;;25.70;99.90;;;;;;5058534;28;20643;-75
2023/10/03 11:32:40;;;;;;;13.77;6.28;;;25.70;99.90;;;;;;5060548;28;20737;-75
2023/10/03 11:35:21;;;;;;;13.98;6.10;;;25.60;99.90;;;;;;5055008;28;20226;-75
2023/10/03 11:37:48;;;;;;;12.73;6.07;;;25.40;99.90;;;;;;5052610;28;20211;-75
2023/10/03 11:40:19;;;;;;;14.57;6.15;;;25.40;99.90;;;;;;5061204;28;20712;-74
2023/10/03 11:42:45;;;;;;;13.82;6.13;;;25.40;99.90;;;;;;5056372;28;20211;-75
2023/10/03 11:45:23;;;;;;;11.98;5.38;;;25.30;99.90;;;;;;5062499;28;20760;-75
2023/10/03 11:48:17;;;;;;;12.45;6.18;;;25.10;99.90;;;;;;5060083;28;20325;-76
2023/10/03 11:50:44;;;;;;;14.38;6.97;;;25.10;99.90;;;;;;5058805;28;20235;-75
2023/10/03 11:53:11;;;;;;;12.05;5.30;;;24.90;99.90;;;;;;5062037;28;20203;-73
2023/10/03 11:55:40;;;;;;;10.48;5.45;;;24.90;99.90;;;;;;5060169;28;20207;-75
2023/10/03 11:58:07;;;;;;;9.68;5.47;;;24.70;99.90;;;;;;5061484;28;20228;-74
2023/10/03 12:00:34;;;;;;;12.70;5.78;;;24.70;99.90;;;;;;5050877;28;20672;-72
2023/10/03 12:03:00;;;;;;;10.35;4.75;;;24.60;99.90;;;;;;5052449;28;20182;-75
2023/10/03 12:05:27;;;;;;;13.82;5.88;;;24.40;99.90;;;;;;5043071;28;20214;-76
2023/10/03 12:07:56;;;;;;;13.55;6.05;;;24.30;99.90;;;;;;5058366;28;20223;-73
2023/10/03 12:10:24;;;;;;;12.48;5.30;;;24.30;99.90;;;;;;5029599;28;20631;-74
2023/10/03 12:12:50;;;;;;;12.75;5.32;;;24.20;99.90;;;;;;5020146;28;20708;-75
2023/10/03 12:15:17;;;;;;;10.48;5.35;;;24.30;99.90;;;;;;5043446;28;20179;-76
2023/10/03 12:17:46;;;;;;;13.27;5.57;;;24.30;99.90;;;;;;5020420;28;20284;-76
2023/10/03 12:20:17;;;;;;;10.18;5.57;;;24.10;99.90;;;;;;5036205;28;20281;-76
2023/10/03 12:22:50;;;;;;;11.70;5.32;;;24.20;99.90;;;;;;5035114;28;20583;-73
2023/10/03 12:25:18;;;;;;;10.45;5.20;;;24.20;99.90;;;;;;5041915;28;20223;-74
2023/10/03 12:27:44;;;;;;;11.93;6.10;;;24.10;99.90;;;;;;5020731;28;20282;-74
2023/10/03 12:30:12;;;;;;;11.82;4.90;;;24.10;99.90;;;;;;5042691;28;20211;-74
2023/10/03 12:32:41;;;;;;;10.48;5.22;;;24.20;99.90;;;;;;5020842;28;20557;-74
2023/10/03 12:35:07;;;;;;;11.30;5.47;;;24.20;99.90;;;;;;5036410;28;20208;-74
2023/10/03 12:37:34;;;;;;;11.40;5.43;;;24.30;99.90;;;;;;5012694;28;20218;-74
2023/10/03 12:40:13;;;;;;;11.80;5.53;;;24.40;99.90;;;;;;5031489;28;20213;-74
2023/10/03 12:42:41;;;;;;;9.68;5.00;;;24.50;99.90;;;;;;5029318;28;20653;-74
2023/10/03 12:45:07;;;;;;;13.00;4.63;;;24.40;99.90;;;;;;5015580;28;20205;-74
2023/10/03 12:47:35;;;;;;;10.10;4.93;;;24.40;99.90;;;;;;5039663;28;20218;-74
2023/10/03 12:50:02;;;;;;;14.52;5.15;;;24.50;99.90;;;;;;5025368;28;20594;-75
2023/10/03 12:52:30;;;;;;;9.77;4.07;;;24.30;99.90;;;;;;5040187;28;20199;-75
2023/10/03 12:54:56;;;;;;;10.63;4.75;;;24.20;99.90;;;;;;5039024;28;20631;-75